Time;durP1;ratioP1;P1;durP2;ratioP2;P2;SDS_P1;SDS_P2;PMS_P1;PMS_P2;Temp;Humidity;BMP_temperature;BMP_pressure;BME280_temperature;BME280_humidity;BME280_pressure;Samples;Min_cycle;Max_cycle;Signal;HPM_P1;HPM_P2
2021/12/25 15:30:08;;;;;;;;;;;0.90;99.90;;;;;;6291381;22;19931;-92
2021/12/25 15:32:41;;;;;;;;;;;0.80;99.90;;;;;;6289024;22;19907;-92
2021/12/25 15:35:17;;;;;;;;;;;0.90;99.90;;;;;;6290183;22;20250;-92
2021/12/25 15:37:57;;;;;;;;;;;;;;;;;;;;;
2021/12/25 15:40:29;;;;;;;;;;;0.90;99.90;;;;;;6317276;22;19978;-93
2021/12/25 16:09:07;;;;;;;;;;;0.90;99.90;;;;;;5934029;24;20269;-94
2021/12/25 18:29:12;;;;;;;;;;;-0.50;99.90;;;;;;5036178;28;19936;-95
2021/12/25 18:31:38;;;;;;;;;;;-0.40;99.90;;;;;;5051156;28;20376;-95
2021/12/25 18:34:04;;;;;;;;;;;-0.30;99.90;;;;;;5050105;28;19913;-93
2021/12/25 18:36:29;;;;;;;;;;;-0.30;99.90;;;;;;5050097;28;19909;-95
2021/12/25 18:38:55;;;;;;;;;;;-0.20;99.90;;;;;;5039624;28;19916;-96
2021/12/25 18:41:22;;;;;;;;;;;-0.10;99.90;;;;;;5022547;28;20265;-96
2021/12/25 18:43:48;;;;;;;;;;;-0.10;99.90;;;;;;5024075;28;19910;-94
2021/12/25 18:46:14;;;;;;;;;;;0.00;99.90;;;;;;5024882;28;19916;-95
2021/12/25 18:48:40;;;;;;;;;;;0.00;99.90;;;;;;5031158;28;19909;-94
2021/12/25 18:51:08;;;;;;;;;;;0.00;99.90;;;;;;5022153;28;20303;-96
2021/12/25 18:53:35;;;;;;;;;;;0.10;99.90;;;;;;5018331;28;19956;-95
2021/12/25 18:56:01;;;;;;;;;;;0.10;99.90;;;;;;5011231;28;19960;-96
2021/12/25 18:58:27;;;;;;;;;;;0.10;99.90;;;;;;5010669;28;19913;-96
2021/12/25 19:00:53;;;;;;;;;;;0.10;99.90;;;;;;5012821;28;19910;-94
2021/12/25 19:03:20;;;;;;;;;;;0.10;99.90;;;;;;5023196;28;19909;-96
2021/12/25 19:05:46;;;;;;;;;;;0.20;99.90;;;;;;5022970;28;19909;-95
2021/12/25 19:08:14;;;;;;;;;;;0.20;99.90;;;;;;5018855;28;19909;-91
2021/12/25 19:10:41;;;;;;;;;;;0.20;99.90;;;;;;5012955;28;19948;-94
2021/12/25 19:13:07;;;;;;;;;;;0.20;99.90;;;;;;5024959;28;19913;-93
2021/12/25 19:15:33;;;;;;;;;;;0.20;99.90;;;;;;5026643;28;19920;-94
2021/12/25 19:17:59;;;;;;;;;;;0.20;99.90;;;;;;5030386;28;19916;-92
2021/12/25 19:20:25;;;;;;;;;;;0.20;99.90;;;;;;5029469;28;20372;-94
2021/12/25 19:22:51;;;;;;;;;;;0.20;99.90;;;;;;5017812;28;19909;-94
2021/12/25 19:25:17;;;;;;;;;;;0.20;99.90;;;;;;5008714;28;19916;-93
2021/12/25 19:27:43;;;;;;;;;;;0.20;99.90;;;;;;4998369;28;19930;-93
2021/12/25 19:30:10;;;;;;;;;;;0.20;99.90;;;;;;5010426;28;19932;-93
2021/12/25 19:32:36;;;;;;;;;;;0.20;99.90;;;;;;5016597;28;19913;-95
2021/12/25 19:35:03;;;;;;;;;;;0.30;99.90;;;;;;5016206;28;19909;-94
2021/12/25 19:37:29;;;;;;;;;;;0.20;99.90;;;;;;5016292;28;19979;-93
2021/12/25 19:39:54;;;;;;;;;;;0.20;99.90;;;;;;5016899;28;20403;-93
2021/12/25 19:42:20;;;;;;;;;;;0.30;99.90;;;;;;5016447;28;19918;-95
2021/12/25 19:44:48;;;;;;;;;;;0.20;99.90;;;;;;5022292;28;19920;-93
2021/12/25 19:47:13;;;;;;;;;;;0.20;99.90;;;;;;5035871;28;19913;-93
2021/12/25 19:49:40;;;;;;;;;;;0.20;99.90;;;;;;5035799;28;19924;-92
2021/12/25 19:52:06;;;;;;;;;;;0.20;99.90;;;;;;5035999;28;19952;-95
2021/12/25 19:54:33;;;;;;;;;;;0.20;99.90;;;;;;5035850;28;19963;-93
2021/12/25 19:57:05;;;;;;;;;;;0.10;99.90;;;;;;5035749;28;19909;-93
2021/12/25 19:59:32;;;;;;;;;;;0.10;99.90;;;;;;5035558;28;19913;-92
2021/12/25 20:01:58;;;;;;;;;;;0.10;99.90;;;;;;5035386;28;20304;-93
2021/12/25 20:04:24;;;;;;;;;;;0.10;99.90;;;;;;5035287;28;19960;-93
2021/12/25 20:06:50;;;;;;;;;;;0.10;99.90;;;;;;5035294;28;20380;-94
2021/12/25 20:09:16;;;;;;;;;;;0.10;99.90;;;;;;5035236;28;19928;-93
2021/12/25 20:11:42;;;;;;;;;;;0.00;99.90;;;;;;5034968;28;20380;-92
2021/12/25 20:14:07;;;;;;;;;;;0.00;99.90;;;;;;5035193;28;19921;-93
2021/12/25 20:16:34;;;;;;;;;;;0.00;99.90;;;;;;5035303;28;19913;-92
2021/12/25 20:19:00;;;;;;;;;;;0.00;99.90;;;;;;5035251;28;20337;-94
2021/12/25 20:21:25;;;;;;;;;;;0.00;99.90;;;;;;5036019;28;20305;-93
